Hovedside
METAR-TAF:

METAR-TAF

Lufthavner :

Joensuu lufthavn

Joensuu, Finland

breddegrad: 62-40N, lengdegrad: 029-38E, høyde over havet: 119 m

Gjeldene værobservasjon

Denne rapporten ble laget for 22 minutter siden, klokken 03:50 UTC
Vind 15 kt fra Sør, skiftende mellom Sør-sørøst og Sørvest
Temperatur 12°C
Luftfuktighet 71%
Trykk 1000 hPa
Sikt 10 km eller mer
Overskyet i en høyde av 3400 ft

METAR: EFJO 230350Z AUTO 18015KT 160V220 9999 OVC034 12/07 Q1000

Tid: 07:12 (04:12 UTC)

Varsel

Denne rapporten ble laget for 1 time og 45 minutter siden, klokken 02:27 UTC
Varsel gyldig fra 23. klokken 03 UTC til 23. klokken 12 UTC
Vind 13 kt fra Sør-sørvest
Sikt 10 km eller mer
Brutte skyer i en høyde av 2500 ft
Midlertidig
fra 23. klokken 03 UTC til 23. klokken 12 UTC
Vind 18 kt fra Sør-sørvest med vindkast opp mot 28 kt
Sikt: 4000 m
Spredte skyer i en høyde av 3000 ft, Bygeskyer.
regnbyger

TAF: EFJO 230227Z 2303/2312 20013KT 9999 BKN025 TEMPO 2303/2312 21018G28KT 4000 SHRA SCT030CB

Værobservasjoner og værvarsel for over 4000 flyplasser (METAR- og TAF-rapporter).

Tilgjengelige stasjoner er representert av de røde og gule prikkene på kartet.

Hold musepekeren over prikken for å se navnet på stasjonen.

Klikk så for å se værobservasjoner og -varsler.

For å forandre kartet kan du klikke på den grønne knappen med svart kryss for å zoome inn, på den grønne knappen med strek for å zoome ut, eller på de grønne pilene for å se tilstøtende kart.


METAR-TAF: